createdAt,value
2023-03-07T00:02:42.322Z,10.95
2023-03-07T00:08:10.587Z,11.98
2023-03-07T00:13:39.506Z,13.55
2023-03-07T00:19:09.578Z,11.00
2023-03-07T00:24:33.369Z,11.40
2023-03-07T00:30:01.885Z,10.60
2023-03-07T00:35:28.942Z,12.82
2023-03-07T00:40:59.380Z,10.82
2023-03-07T00:46:24.469Z,10.73
2023-03-07T00:51:54.080Z,12.27
2023-03-07T00:57:22.734Z,9.65
2023-03-07T01:02:50.040Z,11.05
2023-03-07T01:08:17.119Z,12.20
2023-03-07T01:13:45.643Z,13.07
2023-03-07T01:19:14.444Z,17.13
2023-03-07T01:24:43.054Z,13.63
2023-03-07T01:30:11.937Z,17.45
2023-03-07T01:35:38.173Z,15.50
2023-03-07T01:41:07.876Z,16.90
2023-03-07T01:46:44.164Z,14.57
2023-03-07T01:52:16.461Z,15.43
2023-03-07T01:57:50.895Z,16.17
2023-03-07T02:03:20.850Z,17.67
2023-03-07T02:08:50.728Z,17.20
2023-03-07T02:14:20.912Z,19.30
2023-03-07T02:19:55.097Z,15.30
2023-03-07T02:25:29.073Z,20.63
2023-03-07T02:31:00.232Z,15.05
2023-03-07T02:36:27.870Z,16.58
2023-03-07T02:42:12.455Z,13.00
2023-03-07T02:47:50.071Z,11.18
2023-03-07T02:53:19.308Z,10.55
2023-03-07T02:58:47.582Z,13.82
2023-03-07T03:04:17.167Z,12.30
2023-03-07T03:09:41.404Z,14.23
2023-03-07T03:15:10.074Z,14.02
2023-03-07T03:20:36.753Z,13.32
2023-03-07T03:26:00.421Z,11.60
2023-03-07T03:31:26.154Z,10.88
2023-03-07T03:36:51.090Z,12.95
2023-03-07T03:42:14.369Z,11.27
2023-03-07T03:47:37.828Z,12.00
2023-03-07T03:53:02.783Z,13.35
2023-03-07T03:58:25.771Z,15.65
2023-03-07T04:03:48.884Z,12.00
2023-03-07T04:09:14.018Z,12.57
2023-03-07T04:14:41.042Z,10.30
2023-03-07T04:20:05.184Z,11.02
2023-03-07T04:25:30.773Z,12.40
2023-03-07T04:30:53.937Z,13.50
2023-03-07T04:36:17.627Z,12.43
2023-03-07T04:41:42.245Z,21.55
2023-03-07T04:47:13.123Z,14.13
2023-03-07T04:52:41.863Z,20.13
2023-03-07T04:58:05.945Z,23.08
2023-03-07T05:03:30.031Z,10.93
2023-03-07T05:08:53.959Z,19.55
2023-03-07T05:14:23.976Z,19.45
2023-03-07T05:19:55.932Z,29.23
2023-03-07T05:25:24.853Z,22.38
2023-03-07T05:30:53.303Z,23.98
2023-03-07T05:36:22.870Z,25.25
2023-03-07T05:41:51.897Z,29.63
2023-03-07T05:47:21.851Z,25.53
2023-03-07T05:58:15.246Z,16.90
2023-03-07T06:03:48.928Z,16.20
2023-03-07T06:09:12.472Z,27.08
2023-03-07T06:14:41.612Z,19.65
2023-03-07T06:20:12.810Z,21.65
2023-03-07T06:25:35.379Z,23.85
2023-03-07T06:31:02.137Z,19.27
2023-03-07T06:36:32.378Z,20.52
2023-03-07T06:42:02.771Z,22.90
2023-03-07T06:47:31.820Z,16.47
2023-03-07T06:52:56.748Z,16.85
2023-03-07T06:58:20.827Z,22.77
2023-03-07T07:03:44.217Z,39.80
2023-03-07T07:09:14.627Z,26.25
2023-03-07T07:14:43.385Z,18.65
2023-03-07T07:20:12.362Z,23.33
2023-03-07T07:25:38.760Z,15.98
2023-03-07T07:31:08.244Z,22.98
2023-03-07T07:36:32.627Z,21.58
2023-03-07T07:41:57.213Z,24.38
2023-03-07T07:47:23.826Z,28.52
2023-03-07T07:52:50.814Z,19.48
2023-03-07T07:58:17.290Z,18.23
2023-03-07T08:03:44.675Z,16.43
2023-03-07T08:09:09.169Z,20.08
2023-03-07T08:14:36.615Z,25.33
2023-03-07T08:25:37.812Z,20.92
2023-03-07T08:31:09.421Z,19.05
2023-03-07T08:36:32.717Z,18.92
2023-03-07T08:42:01.808Z,18.87
2023-03-07T08:47:29.880Z,11.80
2023-03-07T08:52:58.786Z,13.70
2023-03-07T08:58:27.547Z,17.10
2023-03-07T09:03:58.101Z,19.55
2023-03-07T09:09:22.143Z,16.45
2023-03-07T09:14:50.603Z,29.52
2023-03-07T09:20:20.388Z,21.17
2023-03-07T09:25:44.597Z,19.85
2023-03-07T09:31:11.719Z,29.23
2023-03-07T09:36:42.184Z,16.42
2023-03-07T09:42:09.068Z,16.95
2023-03-07T09:47:39.299Z,19.30
2023-03-07T09:53:14.250Z,18.30
2023-03-07T09:58:44.444Z,22.80
2023-03-07T10:04:14.203Z,19.63
2023-03-07T10:09:44.860Z,14.63
2023-03-07T10:15:20.084Z,24.60
2023-03-07T10:20:50.052Z,15.70
2023-03-07T10:26:18.334Z,15.38
2023-03-07T10:31:42.652Z,12.55
2023-03-07T10:37:15.342Z,28.25
2023-03-07T10:42:45.123Z,15.65
2023-03-07T10:48:11.006Z,12.25
2023-03-07T10:53:40.528Z,14.75
2023-03-07T10:59:11.235Z,14.88
2023-03-07T11:04:47.230Z,10.48
2023-03-07T11:15:37.528Z,17.63
2023-03-07T11:21:06.219Z,14.93
2023-03-07T11:26:33.518Z,23.05
2023-03-07T11:32:07.438Z,29.15
2023-03-07T11:37:39.381Z,29.33
2023-03-07T11:43:14.997Z,19.30
2023-03-07T11:48:52.277Z,21.88
2023-03-07T11:54:26.729Z,17.20
2023-03-07T12:00:04.435Z,17.83
2023-03-07T12:05:43.813Z,12.77
2023-03-07T12:11:20.311Z,16.05
2023-03-07T12:16:53.786Z,16.55
2023-03-07T12:22:27.101Z,17.67
2023-03-07T12:27:51.613Z,11.23
2023-03-07T12:33:22.845Z,19.98
2023-03-07T12:38:51.625Z,12.75
2023-03-07T12:44:23.062Z,14.85
2023-03-07T12:49:55.127Z,11.82
2023-03-07T12:55:24.272Z,13.00
2023-03-07T13:00:50.352Z,12.93
2023-03-07T13:06:17.336Z,13.85
2023-03-07T13:12:05.653Z,12.57
2023-03-07T13:17:54.099Z,15.35
2023-03-07T13:23:28.768Z,36.90
2023-03-07T13:28:53.488Z,20.83
2023-03-07T13:34:41.533Z,12.15
2023-03-07T13:40:23.829Z,11.23
2023-03-07T13:45:52.842Z,13.65
2023-03-07T13:51:21.974Z,12.48
2023-03-07T13:56:46.557Z,16.08
2023-03-07T14:02:14.152Z,12.27
2023-03-07T14:07:41.311Z,12.70
2023-03-07T14:13:15.841Z,17.70
2023-03-07T14:18:49.527Z,11.80
2023-03-07T14:24:26.530Z,14.20
2023-03-07T14:29:57.173Z,12.18
2023-03-07T14:35:36.820Z,12.38
2023-03-07T14:41:19.728Z,15.77
2023-03-07T14:46:49.684Z,13.60
2023-03-07T14:52:29.914Z,15.80
2023-03-07T14:57:57.406Z,16.92
2023-03-07T15:03:27.243Z,13.50
2023-03-07T15:08:56.376Z,13.30
2023-03-07T15:14:21.238Z,16.88
2023-03-07T15:19:54.952Z,19.98
2023-03-07T15:25:22.670Z,10.88
2023-03-07T15:30:53.582Z,11.15
2023-03-07T15:36:20.999Z,12.38
2023-03-07T15:41:59.821Z,14.10
2023-03-07T15:47:23.856Z,17.45
2023-03-07T15:52:52.244Z,9.63
2023-03-07T15:58:21.676Z,10.55
2023-03-07T16:03:49.697Z,28.45
2023-03-07T16:09:19.130Z,30.08
2023-03-07T16:14:48.543Z,26.17
2023-03-07T16:20:17.612Z,39.20
2023-03-07T16:25:43.968Z,27.02
2023-03-07T16:31:13.000Z,27.45
2023-03-07T16:36:40.156Z,20.05
2023-03-07T16:42:06.787Z,43.65
2023-03-07T16:47:31.214Z,35.17
2023-03-07T16:52:54.471Z,53.53
2023-03-07T16:58:26.286Z,65.53
2023-03-07T17:03:52.893Z,38.10
2023-03-07T17:09:15.965Z,39.53
2023-03-07T17:14:46.355Z,38.90
2023-03-07T17:20:13.097Z,37.40
2023-03-07T17:25:41.973Z,40.83
2023-03-07T17:31:06.563Z,30.45
2023-03-07T17:36:34.992Z,39.92
2023-03-07T17:42:04.295Z,58.00
2023-03-07T17:47:34.156Z,76.70
2023-03-07T17:53:02.905Z,79.18
2023-03-07T17:58:27.769Z,75.03
2023-03-07T18:03:58.420Z,47.50
2023-03-07T18:09:23.356Z,27.13
2023-03-07T18:14:51.728Z,33.05
2023-03-07T18:20:22.509Z,31.42
2023-03-07T18:25:46.885Z,39.08
2023-03-07T18:31:16.808Z,58.40
2023-03-07T18:36:44.818Z,49.50
2023-03-07T18:42:07.729Z,48.50
2023-03-07T18:47:34.001Z,43.63
2023-03-07T18:53:04.448Z,38.70
2023-03-07T18:58:33.888Z,37.40
2023-03-07T19:09:31.331Z,28.63
2023-03-07T19:14:59.621Z,27.85
2023-03-07T19:20:24.793Z,36.33
2023-03-07T19:25:55.439Z,27.83
2023-03-07T19:36:46.629Z,28.23
2023-03-07T19:42:13.936Z,33.45
2023-03-07T19:47:37.163Z,28.17
2023-03-07T19:53:05.734Z,30.02
2023-03-07T19:58:36.510Z,30.77
2023-03-07T20:04:04.802Z,29.77
2023-03-07T20:09:34.035Z,32.78
2023-03-07T20:14:59.308Z,34.78
2023-03-07T20:20:27.027Z,31.65
2023-03-07T20:25:56.177Z,33.42
2023-03-07T20:31:26.718Z,45.25
2023-03-07T20:36:50.481Z,57.15
2023-03-07T20:42:18.581Z,52.55
2023-03-07T20:47:42.876Z,50.33
2023-03-07T20:53:12.085Z,47.85
2023-03-07T20:58:37.248Z,57.38
2023-03-07T21:04:09.322Z,54.17
2023-03-07T21:09:37.828Z,53.78
2023-03-07T21:15:08.189Z,52.65
2023-03-07T21:20:40.543Z,58.13
2023-03-07T21:26:03.855Z,69.97
2023-03-07T21:31:33.702Z,81.90
2023-03-07T21:37:00.735Z,75.53
2023-03-07T21:47:58.009Z,55.97
2023-03-07T21:53:23.943Z,53.35
2023-03-07T21:58:48.616Z,68.60
2023-03-07T22:04:13.891Z,56.03
2023-03-07T22:09:44.324Z,60.45
2023-03-07T22:15:12.965Z,71.53
2023-03-07T22:20:42.312Z,118.22
2023-03-07T22:26:12.858Z,131.68
2023-03-07T22:31:41.967Z,101.57
2023-03-07T22:37:08.070Z,105.03
2023-03-07T22:42:36.001Z,88.45
2023-03-07T22:48:04.980Z,77.07
2023-03-07T22:53:32.807Z,105.53
2023-03-07T22:58:57.074Z,97.93
2023-03-07T23:04:25.803Z,82.05
2023-03-07T23:09:54.541Z,83.03
2023-03-07T23:15:19.557Z,84.90
2023-03-07T23:20:47.960Z,79.95
2023-03-07T23:26:18.229Z,76.93
2023-03-07T23:37:13.520Z,52.72
2023-03-07T23:48:09.786Z,60.95
2023-03-07T23:53:39.380Z,59.60
2023-03-07T23:59:06.853Z,57.73
